createdAt,value
2019-03-19T00:02:00.007Z,94.80
2019-03-19T00:07:03.790Z,95.30
2019-03-19T00:12:07.853Z,95.20
2019-03-19T00:17:11.974Z,95.30
2019-03-19T00:22:15.981Z,95.60
2019-03-19T00:27:19.678Z,95.50
2019-03-19T00:32:23.929Z,96.00
2019-03-19T00:37:27.757Z,95.90
2019-03-19T00:42:31.428Z,95.60
2019-03-19T00:47:35.323Z,96.10
2019-03-19T00:52:39.539Z,96.60
2019-03-19T00:57:43.336Z,96.40
2019-03-19T01:02:47.139Z,96.80
2019-03-19T01:07:51.318Z,97.10
2019-03-19T01:12:55.352Z,97.20
2019-03-19T01:17:59.073Z,97.50
2019-03-19T01:23:02.731Z,97.70
2019-03-19T01:28:06.623Z,97.60
2019-03-19T01:33:10.273Z,97.30
2019-03-19T01:38:14.257Z,96.60
2019-03-19T01:43:17.929Z,96.20
2019-03-19T01:48:21.569Z,95.90
2019-03-19T01:53:25.213Z,95.60
2019-03-19T01:58:29.168Z,96.00
2019-03-19T02:03:33.097Z,95.90
2019-03-19T02:08:36.753Z,96.30
2019-03-19T02:13:40.808Z,96.60
2019-03-19T02:18:44.460Z,96.20
2019-03-19T02:23:48.433Z,96.00
2019-03-19T02:28:52.078Z,96.10
2019-03-19T02:33:56.035Z,96.60
2019-03-19T02:38:59.683Z,96.40
2019-03-19T02:44:03.340Z,96.20
2019-03-19T02:49:06.987Z,96.00
2019-03-19T02:54:10.934Z,96.40
2019-03-19T02:59:14.817Z,96.80
2019-03-19T03:04:18.498Z,96.50
2019-03-19T03:09:22.149Z,96.50
2019-03-19T03:14:25.805Z,96.50
2019-03-19T03:19:29.463Z,96.00
2019-03-19T03:24:33.118Z,95.80
2019-03-19T03:29:37.005Z,95.80
2019-03-19T03:34:40.655Z,96.20
2019-03-19T03:39:44.538Z,95.90
2019-03-19T03:44:48.212Z,96.00
2019-03-19T03:49:51.873Z,96.70
2019-03-19T03:54:56.144Z,96.40
2019-03-19T03:59:59.783Z,96.80
2019-03-19T04:05:03.527Z,96.50
2019-03-19T04:10:08.297Z,96.50
2019-03-19T04:15:12.003Z,96.20
2019-03-19T04:20:16.429Z,96.60
2019-03-19T04:25:20.078Z,96.60
2019-03-19T04:30:24.147Z,96.40
2019-03-19T04:35:27.793Z,96.40
2019-03-19T04:40:31.458Z,96.70
2019-03-19T04:45:35.117Z,96.60
2019-03-19T04:50:38.777Z,96.60
2019-03-19T04:55:42.435Z,96.20
2019-03-19T05:00:46.098Z,96.00
2019-03-19T05:05:50.143Z,95.90
2019-03-19T05:10:53.834Z,96.70
2019-03-19T05:15:57.489Z,96.60
2019-03-19T05:21:01.501Z,96.80
2019-03-19T05:26:05.277Z,96.90
2019-03-19T05:31:08.938Z,97.50
2019-03-19T05:36:12.607Z,97.70
2019-03-19T05:41:16.763Z,98.30
2019-03-19T05:46:20.498Z,98.40
2019-03-19T05:51:24.233Z,97.90
2019-03-19T05:56:27.905Z,97.90
2019-03-19T06:01:31.534Z,97.10
2019-03-19T06:06:35.505Z,98.40
2019-03-19T06:11:41.910Z,97.40
2019-03-19T06:16:45.577Z,97.60
2019-03-19T06:21:49.535Z,96.70
2019-03-19T06:26:53.200Z,97.80
2019-03-19T06:31:57.118Z,97.00
2019-03-19T06:37:00.817Z,95.80
2019-03-19T06:42:04.553Z,95.80
2019-03-19T06:47:08.206Z,95.80
2019-03-19T06:52:11.962Z,95.50
2019-03-19T06:57:15.937Z,95.40
2019-03-19T07:02:19.624Z,95.00
2019-03-19T07:07:23.274Z,95.50
2019-03-19T07:12:26.926Z,95.50
2019-03-19T07:17:30.622Z,95.70
2019-03-19T07:22:35.459Z,95.00
2019-03-19T07:27:39.187Z,95.70
2019-03-19T07:32:43.211Z,96.00
2019-03-19T07:37:46.903Z,98.50
2019-03-19T07:42:50.730Z,99.90
2019-03-19T07:47:54.603Z,98.40
2019-03-19T07:52:58.345Z,98.00
2019-03-19T07:58:02.046Z,95.50
2019-03-19T08:03:15.542Z,94.20
2019-03-19T08:08:11.245Z,93.40
2019-03-19T08:13:15.475Z,92.60
2019-03-19T08:18:19.446Z,92.90
2019-03-19T08:23:23.142Z,93.30
2019-03-19T08:28:27.246Z,93.40
2019-03-19T08:33:30.928Z,93.10
2019-03-19T08:38:34.593Z,93.60
2019-03-19T08:43:38.337Z,95.10
2019-03-19T08:48:42.026Z,97.90
2019-03-19T08:53:46.270Z,99.50
2019-03-19T08:58:50.000Z,99.90
2019-03-19T09:03:53.947Z,99.90
2019-03-19T09:08:57.615Z,99.90
2019-03-19T09:14:01.265Z,97.80
2019-03-19T09:19:05.282Z,96.10
2019-03-19T09:24:09.214Z,88.00
2019-03-19T09:29:17.060Z,86.50
2019-03-19T09:34:18.405Z,84.40
2019-03-19T09:39:22.197Z,74.00
2019-03-19T09:44:26.378Z,55.90
2019-03-19T09:49:30.072Z,49.30
2019-03-19T09:54:33.982Z,43.40
2019-03-19T09:59:37.693Z,48.50
2019-03-19T10:04:41.405Z,58.30
2019-03-19T10:09:45.159Z,61.60
2019-03-19T10:14:48.878Z,59.10
2019-03-19T10:19:52.607Z,59.60
2019-03-19T10:24:56.574Z,51.10
2019-03-19T10:30:00.333Z,55.20
2019-03-19T10:35:04.306Z,63.50
2019-03-19T10:40:08.295Z,61.80
2019-03-19T10:45:12.685Z,48.90
2019-03-19T10:50:18.339Z,44.70
2019-03-19T10:55:22.117Z,53.90
2019-03-19T11:00:25.983Z,49.50
2019-03-19T11:05:29.662Z,38.60
2019-03-19T11:10:33.425Z,34.20
2019-03-19T11:15:37.162Z,32.70
2019-03-19T11:20:41.192Z,32.40
2019-03-19T11:25:54.135Z,41.20
2019-03-19T11:30:50.667Z,44.70
2019-03-19T11:35:54.449Z,45.90
2019-03-19T11:40:58.217Z,49.70
2019-03-19T11:46:01.921Z,50.20
2019-03-19T11:51:05.911Z,51.90
2019-03-19T11:56:09.620Z,54.00
2019-03-19T12:01:13.424Z,43.90
2019-03-19T12:06:17.581Z,42.80
2019-03-19T12:11:21.307Z,50.50
2019-03-19T12:16:24.974Z,44.30
2019-03-19T12:21:28.666Z,40.90
2019-03-19T12:26:32.568Z,43.40
2019-03-19T12:31:36.249Z,46.60
2019-03-19T12:36:40.299Z,46.50
2019-03-19T12:41:44.261Z,40.30
2019-03-19T12:46:47.951Z,41.00
2019-03-19T12:51:51.694Z,43.20
2019-03-19T12:56:55.469Z,47.30
2019-03-19T13:01:59.182Z,49.40
2019-03-19T13:07:03.017Z,41.10
2019-03-19T13:12:07.018Z,38.90
2019-03-19T13:17:10.694Z,43.80
2019-03-19T13:22:14.614Z,50.80
2019-03-19T13:27:18.322Z,57.90
2019-03-19T13:32:22.030Z,64.50
2019-03-19T13:37:25.785Z,68.70
2019-03-19T13:42:29.837Z,66.60
2019-03-19T13:47:33.813Z,63.20
2019-03-19T13:52:37.804Z,62.00
2019-03-19T13:57:41.749Z,48.20
2019-03-19T14:02:46.309Z,40.80
2019-03-19T14:07:50.045Z,37.70
2019-03-19T14:12:57.300Z,41.70
2019-03-19T14:18:01.334Z,47.40
2019-03-19T14:23:05.070Z,51.50
2019-03-19T14:28:08.781Z,56.30
2019-03-19T14:33:12.446Z,58.70
2019-03-19T14:38:16.449Z,63.30
2019-03-19T14:43:20.422Z,67.30
2019-03-19T14:48:24.837Z,74.20
2019-03-19T14:53:28.498Z,85.20
2019-03-19T14:58:32.151Z,89.00
2019-03-19T15:03:36.137Z,90.00
2019-03-19T15:08:40.213Z,88.50
2019-03-19T15:13:43.868Z,88.50
2019-03-19T15:18:47.512Z,85.80
2019-03-19T15:23:52.012Z,83.00
2019-03-19T15:28:55.662Z,81.10
2019-03-19T15:33:59.329Z,83.50
2019-03-19T15:39:03.000Z,85.10
2019-03-19T15:44:08.037Z,83.90
2019-03-19T15:49:11.709Z,82.80
2019-03-19T15:54:15.663Z,81.60
2019-03-19T15:59:19.358Z,82.80
2019-03-19T16:04:23.499Z,85.80
2019-03-19T16:09:27.165Z,84.50
2019-03-19T16:14:31.244Z,85.90
2019-03-19T16:19:34.907Z,86.00
2019-03-19T16:24:39.295Z,86.10
2019-03-19T16:29:42.967Z,86.50
2019-03-19T16:34:46.908Z,87.00
2019-03-19T16:39:50.937Z,87.40
2019-03-19T16:44:54.910Z,87.30
2019-03-19T16:49:58.574Z,86.70
2019-03-19T16:55:02.237Z,86.80
2019-03-19T17:00:07.223Z,87.10
2019-03-19T17:05:11.065Z,86.40
2019-03-19T17:10:15.511Z,86.80
2019-03-19T17:15:19.627Z,86.50
2019-03-19T17:20:23.533Z,88.20
2019-03-19T17:25:27.284Z,88.00
2019-03-19T17:30:31.138Z,89.40
2019-03-19T17:35:34.929Z,89.90
2019-03-19T17:40:41.563Z,90.70
2019-03-19T17:45:44.982Z,90.40
2019-03-19T17:50:49.347Z,90.70
2019-03-19T17:55:52.995Z,91.30
2019-03-19T18:00:56.796Z,91.10
2019-03-19T18:06:00.440Z,91.20
2019-03-19T18:11:04.291Z,91.10
2019-03-19T18:16:08.002Z,91.40
2019-03-19T18:21:12.051Z,91.50
2019-03-19T18:26:15.728Z,91.80
2019-03-19T18:31:19.800Z,91.80
2019-03-19T18:36:24.561Z,92.00
2019-03-19T18:41:28.214Z,92.30
2019-03-19T18:46:32.217Z,91.80
2019-03-19T18:51:35.889Z,91.80
2019-03-19T18:56:48.278Z,91.90
2019-03-19T19:01:52.257Z,92.10
2019-03-19T19:07:01.365Z,92.10
2019-03-19T19:12:06.721Z,92.30
2019-03-19T19:17:10.471Z,92.60
2019-03-19T19:22:14.248Z,92.20
2019-03-19T19:27:18.007Z,92.10
2019-03-19T19:32:21.782Z,92.60
2019-03-19T19:37:25.906Z,92.30
2019-03-19T19:42:35.714Z,92.40
2019-03-19T19:47:39.771Z,92.50
2019-03-19T19:52:43.730Z,92.40
2019-03-19T19:57:47.612Z,92.90
2019-03-19T20:02:51.551Z,92.50
2019-03-19T20:07:55.250Z,92.60
2019-03-19T20:12:58.935Z,92.70
2019-03-19T20:18:02.881Z,92.80
2019-03-19T20:23:06.622Z,93.20
2019-03-19T20:28:10.285Z,93.40
2019-03-19T20:33:24.475Z,93.40
2019-03-19T20:38:19.469Z,94.10
2019-03-19T20:43:23.655Z,94.20
2019-03-19T20:48:27.424Z,94.80
2019-03-19T20:53:31.438Z,95.50
2019-03-19T20:58:43.100Z,95.00
2019-03-19T21:03:40.658Z,95.40
2019-03-19T21:08:44.365Z,95.10
2019-03-19T21:13:48.131Z,93.80
2019-03-19T21:18:51.866Z,93.00
2019-03-19T21:23:56.222Z,92.60
2019-03-19T21:29:00.668Z,93.00
2019-03-19T21:34:04.458Z,93.00
2019-03-19T21:39:08.681Z,93.30
2019-03-19T21:44:12.406Z,94.00
2019-03-19T21:49:16.127Z,93.10
2019-03-19T21:54:19.845Z,92.70
2019-03-19T21:59:23.561Z,93.40
2019-03-19T22:04:27.541Z,92.80
2019-03-19T22:09:31.246Z,92.70
2019-03-19T22:14:35.018Z,92.90
2019-03-19T22:19:40.155Z,92.60
2019-03-19T22:24:44.329Z,92.90
2019-03-19T22:29:48.305Z,93.10
2019-03-19T22:34:52.111Z,92.90
2019-03-19T22:39:55.825Z,93.10
2019-03-19T22:44:59.781Z,93.20
2019-03-19T22:50:04.109Z,93.80
2019-03-19T22:55:08.142Z,94.70
2019-03-19T23:00:31.628Z,94.90
2019-03-19T23:05:36.415Z,95.20
2019-03-19T23:10:40.131Z,95.10
2019-03-19T23:15:44.039Z,95.50
2019-03-19T23:20:48.186Z,96.00
2019-03-19T23:25:52.172Z,96.50
2019-03-19T23:30:55.940Z,97.30
2019-03-19T23:36:00.101Z,97.70
2019-03-19T23:41:03.876Z,97.70
2019-03-19T23:46:07.566Z,98.10
2019-03-19T23:51:11.646Z,98.20
2019-03-19T23:56:15.417Z,98.10
